Time;durP1;ratioP1;P1;durP2;ratioP2;P2;SDS_P1;SDS_P2;PMS_P1;PMS_P2;Temp;Humidity;BMP_temperature;BMP_pressure;BME280_temperature;BME280_humidity;BME280_pressure;Samples;Min_cycle;Max_cycle;Signal;HPM_P1;HPM_P2
2021/03/02 00:02:14;;;;;;;5.20;1.77;;;-7.00;46.20;;;;;;4358491;32;20058;-34
2021/03/02 00:04:45;;;;;;;2.20;0.97;;;-7.00;46.50;;;;;;4360556;32;20089;-34
2021/03/02 00:07:13;;;;;;;9.37;3.60;;;-6.90;46.90;;;;;;4360133;32;20078;-35
2021/03/02 00:09:39;;;;;;;5.20;2.10;;;-6.90;47.20;;;;;;4360076;32;20105;-35
2021/03/02 00:12:08;;;;;;;4.83;2.30;;;-6.80;47.60;;;;;;4359748;32;20070;-34
2021/03/02 00:14:36;;;;;;;2.30;0.97;;;-6.80;47.50;;;;;;4358354;32;20103;-34
2021/03/02 00:17:05;;;;;;;3.07;1.87;;;-6.70;47.50;;;;;;4359375;32;20157;-34
2021/03/02 00:19:47;;;;;;;4.47;1.50;;;-6.70;47.20;;;;;;4345902;32;20519;-36
2021/03/02 00:22:32;;;;;;;4.70;2.00;;;-6.60;46.90;;;;;;4358899;32;20069;-35
2021/03/02 00:25:01;;;;;;;4.20;1.92;;;-6.60;46.70;;;;;;4357866;32;20511;-35
2021/03/02 00:27:28;;;;;;;4.13;2.07;;;-6.60;46.50;;;;;;4370495;32;20093;-35
2021/03/02 00:29:54;;;;;;;5.63;2.17;;;-6.60;46.40;;;;;;4360631;32;20065;-36
2021/03/02 00:32:21;;;;;;;4.67;2.20;;;-6.70;46.40;;;;;;4374471;32;20618;-35
2021/03/02 00:34:48;;;;;;;3.80;1.70;;;-6.70;46.50;;;;;;4374242;32;20643;-34
2021/03/02 00:37:16;;;;;;;7.70;2.87;;;-6.70;46.50;;;;;;4372819;32;20101;-37
2021/03/02 00:39:43;;;;;;;4.57;1.60;;;-6.80;46.70;;;;;;4374340;32;20070;-38
2021/03/02 00:42:10;;;;;;;5.83;2.73;;;-6.80;46.80;;;;;;4374273;32;20518;-34
2021/03/02 00:44:36;;;;;;;6.17;2.13;;;-6.80;47.00;;;;;;4372694;32;20101;-38
2021/03/02 00:47:03;;;;;;;3.27;1.70;;;-6.90;47.00;;;;;;4372609;32;20194;-39
2021/03/02 00:49:29;;;;;;;6.60;1.20;;;-6.90;47.00;;;;;;4372840;32;20520;-39
2021/03/02 00:51:56;;;;;;;3.97;1.97;;;-6.90;47.10;;;;;;4374319;32;20089;-38
2021/03/02 00:54:22;;;;;;;4.53;2.33;;;-6.90;47.30;;;;;;4374000;32;20123;-38
2021/03/02 00:56:49;;;;;;;5.30;1.80;;;-6.90;47.30;;;;;;4372737;32;20066;-39
2021/03/02 00:59:15;;;;;;;4.10;1.77;;;-6.90;47.30;;;;;;4372417;32;20054;-34
2021/03/02 01:01:42;;;;;;;3.27;2.47;;;-6.80;47.40;;;;;;4373831;32;20153;-36
2021/03/02 01:04:08;;;;;;;6.53;1.93;;;-6.80;47.50;;;;;;4374064;32;20085;-36
2021/03/02 01:06:35;;;;;;;5.50;2.07;;;-6.70;47.40;;;;;;4373543;32;20089;-35
2021/03/02 01:09:01;;;;;;;2.50;1.03;;;-6.70;47.30;;;;;;4371926;32;20082;-35
2021/03/02 01:11:28;;;;;;;9.07;1.33;;;-6.70;47.20;;;;;;4374027;32;20066;-34
2021/03/02 01:13:54;;;;;;;2.07;1.13;;;-6.70;47.20;;;;;;4374081;32;20070;-36
2021/03/02 01:16:20;;;;;;;4.40;1.50;;;-6.70;47.20;;;;;;4373914;32;20581;-35
2021/03/02 01:18:47;;;;;;;4.00;1.60;;;-6.60;47.40;;;;;;4372796;32;20074;-34
2021/03/02 01:21:14;;;;;;;4.17;1.57;;;-6.70;48.10;;;;;;4374006;32;20544;-34
2021/03/02 01:23:40;;;;;;;6.53;2.40;;;-6.60;47.50;;;;;;4373752;32;20101;-35
2021/03/02 01:26:07;;;;;;;2.93;1.27;;;-6.60;47.60;;;;;;4369739;32;20073;-36
2021/03/02 01:28:33;;;;;;;3.53;1.57;;;-6.50;47.70;;;;;;4357026;32;20551;-34
2021/03/02 01:31:00;;;;;;;4.57;1.87;;;-6.50;47.80;;;;;;4358578;32;20067;-35
2021/03/02 01:33:26;;;;;;;8.73;1.27;;;-6.50;47.90;;;;;;4357921;32;20063;-34
2021/03/02 01:35:53;;;;;;;2.87;1.50;;;-6.40;48.10;;;;;;4358070;32;20576;-34
2021/03/02 01:38:19;;;;;;;4.53;2.37;;;-6.40;48.10;;;;;;4358686;32;20078;-39
2021/03/02 01:40:46;;;;;;;4.93;1.47;;;-6.30;48.20;;;;;;4358822;32;20151;-35
2021/03/02 01:43:14;;;;;;;4.60;2.13;;;-6.30;48.10;;;;;;4358098;32;20067;-34
2021/03/02 01:45:41;;;;;;;2.83;1.40;;;-6.20;48.30;;;;;;4358342;32;20093;-35
2021/03/02 01:48:08;;;;;;;2.80;1.63;;;-6.20;48.30;;;;;;4358586;32;20138;-35
2021/03/02 01:50:35;;;;;;;1.47;1.10;;;-6.20;48.30;;;;;;4358512;32;20114;-36
2021/03/02 01:53:01;;;;;;;5.17;2.30;;;-6.10;48.30;;;;;;4344635;32;20127;-37
2021/03/02 01:55:28;;;;;;;3.00;1.63;;;-6.10;48.30;;;;;;4358348;32;20066;-38
2021/03/02 01:57:54;;;;;;;6.03;1.53;;;-6.00;48.40;;;;;;4358520;32;20533;-38
2021/03/02 02:00:30;;;;;;;3.27;1.50;;;-6.00;48.30;;;;;;4357764;32;20070;-40
2021/03/02 02:03:36;;;;;;;3.43;1.70;;;-6.00;48.20;;;;;;4332026;32;20598;-36
2021/03/02 02:06:43;;;;;;;4.70;1.93;;;-5.90;48.30;;;;;;4358153;32;20084;-34
2021/03/02 02:09:34;;;;;;;1.60;0.90;;;-5.90;48.30;;;;;;4326322;33;20075;-36
2021/03/02 02:12:45;;;;;;;4.23;1.43;;;-5.80;48.50;;;;;;4325911;33;20520;-37
2021/03/02 02:15:14;;;;;;;6.00;1.27;;;-5.80;48.60;;;;;;4319949;33;20095;-35
2021/03/02 02:18:00;;;;;;;7.00;2.07;;;-5.70;48.70;;;;;;4313851;33;20098;-35
2021/03/02 02:20:52;;;;;;;2.50;1.53;;;-5.60;48.80;;;;;;4313392;33;20098;-36
2021/03/02 02:23:36;;;;;;;2.73;1.10;;;-5.50;48.90;;;;;;4315611;33;20216;-35
2021/03/02 02:26:17;;;;;;;4.43;1.53;;;-5.50;48.70;;;;;;4311320;33;20165;-37
2021/03/02 02:28:44;;;;;;;3.80;2.30;;;-5.50;48.70;;;;;;4299287;33;20071;-36
2021/03/02 02:31:11;;;;;;;5.20;1.77;;;-5.40;48.90;;;;;;4299220;33;20099;-35
2021/03/02 02:33:40;;;;;;;5.30;1.93;;;-5.50;49.00;;;;;;4298946;33;20079;-38
2021/03/02 02:36:09;;;;;;;4.30;2.03;;;-5.40;49.10;;;;;;4298840;33;20437;-35
2021/03/02 02:38:37;;;;;;;4.03;1.27;;;-5.50;49.30;;;;;;4299339;33;20115;-38
2021/03/02 02:41:04;;;;;;;4.47;1.70;;;-5.50;49.50;;;;;;4299346;33;20091;-36
2021/03/02 02:43:31;;;;;;;4.23;1.67;;;-5.50;49.70;;;;;;4299412;33;20084;-35
2021/03/02 02:45:57;;;;;;;3.77;1.93;;;-5.40;50.00;;;;;;4329636;32;20082;-35
2021/03/02 02:48:24;;;;;;;3.17;1.40;;;-5.40;50.10;;;;;;4359476;32;20533;-36
2021/03/02 02:50:53;;;;;;;2.20;0.77;;;-5.30;50.10;;;;;;4359780;32;20074;-34
2021/03/02 02:53:19;;;;;;;4.47;1.87;;;-5.30;50.00;;;;;;4335406;32;20176;-35
2021/03/02 02:56:03;;;;;;;5.07;1.63;;;-5.20;50.00;;;;;;4346580;32;20133;-34
2021/03/02 02:58:38;;;;;;;5.83;1.50;;;-5.20;49.90;;;;;;4359355;32;20473;-35
2021/03/02 03:01:04;;;;;;;5.62;2.37;;;-5.00;49.80;;;;;;4359142;32;20066;-34
2021/03/02 03:03:34;;;;;;;3.47;1.57;;;-4.90;49.80;;;;;;4334614;32;20070;-35
2021/03/02 03:06:03;;;;;;;4.90;1.97;;;-4.90;49.70;;;;;;4360527;32;20639;-35
2021/03/02 03:08:33;;;;;;;2.90;1.27;;;-4.80;49.80;;;;;;4359130;32;20069;-35
2021/03/02 03:11:01;;;;;;;1.70;0.50;;;-4.80;49.90;;;;;;4360738;32;20086;-35
2021/03/02 03:13:32;;;;;;;3.23;1.00;;;-4.70;49.80;;;;;;4360194;32;20466;-34
2021/03/02 03:16:01;;;;;;;1.17;0.60;;;-4.60;49.90;;;;;;4347181;32;20095;-36
2021/03/02 03:18:32;;;;;;;4.33;2.30;;;-4.50;49.90;;;;;;4347073;32;20071;-36
2021/03/02 03:20:59;;;;;;;3.60;1.30;;;-4.40;49.90;;;;;;4359258;32;20503;-36
2021/03/02 03:23:26;;;;;;;8.37;2.13;;;-4.30;50.00;;;;;;4358895;32;20069;-36
2021/03/02 03:25:53;;;;;;;2.17;0.70;;;-4.30;50.00;;;;;;4361748;32;20081;-36
2021/03/02 03:28:20;;;;;;;4.30;2.00;;;-4.20;50.00;;;;;;4361671;32;20073;-40
2021/03/02 03:30:46;;;;;;;4.93;1.53;;;-4.10;50.10;;;;;;4373385;32;20072;-40
2021/03/02 03:33:14;;;;;;;3.17;1.07;;;-4.10;50.10;;;;;;4361414;32;20082;-39
2021/03/02 03:35:41;;;;;;;3.63;1.73;;;-4.10;50.10;;;;;;4373613;32;20094;-38
2021/03/02 03:38:08;;;;;;;5.07;1.50;;;-4.00;50.30;;;;;;4361164;32;20085;-39
2021/03/02 03:40:34;;;;;;;5.37;2.03;;;-4.00;50.40;;;;;;4374758;32;20152;-36
2021/03/02 03:43:01;;;;;;;2.43;1.33;;;-4.00;50.70;;;;;;4373710;32;20525;-36
2021/03/02 03:45:28;;;;;;;2.53;1.40;;;-4.00;50.80;;;;;;4375264;32;20485;-39
2021/03/02 03:47:56;;;;;;;3.47;1.17;;;-3.90;50.90;;;;;;4373242;32;20514;-37
2021/03/02 03:50:23;;;;;;;2.87;1.07;;;-3.80;50.90;;;;;;4374864;32;20114;-39
2021/03/02 03:52:53;;;;;;;5.30;1.57;;;-3.80;50.90;;;;;;4374712;32;20069;-38
2021/03/02 03:55:21;;;;;;;4.97;2.20;;;-3.70;51.10;;;;;;4348844;32;20143;-37
2021/03/02 03:57:47;;;;;;;6.00;2.53;;;-3.60;51.30;;;;;;4373123;32;20101;-34
2021/03/02 04:00:15;;;;;;;4.87;1.57;;;-3.60;51.40;;;;;;4360638;32;20096;-36
2021/03/02 04:02:41;;;;;;;2.03;0.83;;;-3.50;51.60;;;;;;4360927;32;20637;-35
2021/03/02 04:05:08;;;;;;;5.97;3.00;;;-3.50;51.70;;;;;;4373095;32;20061;-37
2021/03/02 04:07:35;;;;;;;4.50;2.13;;;-3.40;51.90;;;;;;4374178;32;20081;-36
2021/03/02 04:10:07;;;;;;;5.20;2.07;;;-3.30;52.20;;;;;;4373494;32;20092;-35
2021/03/02 04:12:41;;;;;;;3.13;1.80;;;-3.20;52.40;;;;;;4374537;32;20082;-36
2021/03/02 04:15:16;;;;;;;5.45;2.53;;;-3.10;52.40;;;;;;4374414;32;20566;-35
2021/03/02 04:17:56;;;;;;;4.65;2.58;;;-3.00;52.30;;;;;;4374565;32;20062;-36
2021/03/02 04:20:22;;;;;;;3.30;1.83;;;-3.00;52.20;;;;;;4372846;32;20514;-36
2021/03/02 04:22:49;;;;;;;4.90;1.50;;;-3.00;52.30;;;;;;4373020;32;20174;-35
2021/03/02 04:25:15;;;;;;;3.03;1.87;;;-3.00;52.50;;;;;;4374291;32;20062;-36
2021/03/02 04:27:43;;;;;;;4.93;2.13;;;-3.00;52.50;;;;;;4360536;32;20058;-36
2021/03/02 04:30:10;;;;;;;5.80;2.73;;;-2.90;52.50;;;;;;4357939;32;20063;-36
2021/03/02 04:32:36;;;;;;;4.63;2.87;;;-2.90;52.50;;;;;;4358965;32;20066;-38
2021/03/02 04:35:03;;;;;;;5.13;2.53;;;-2.80;52.70;;;;;;4358985;32;20629;-37
2021/03/02 04:37:30;;;;;;;3.17;1.93;;;-2.70;52.70;;;;;;4357597;32;20071;-37
2021/03/02 04:39:56;;;;;;;21.17;15.13;;;-2.70;52.90;;;;;;4359737;32;20471;-35
2021/03/02 04:42:22;;;;;;;5.17;2.50;;;-2.60;53.00;;;;;;4359431;32;20067;-34
2021/03/02 04:44:49;;;;;;;3.37;1.50;;;-2.50;53.20;;;;;;4359130;32;20072;-35
2021/03/02 04:47:15;;;;;;;3.27;1.97;;;-2.40;53.50;;;;;;4359206;32;20153;-35
2021/03/02 04:49:42;;;;;;;4.30;2.40;;;-2.30;53.50;;;;;;4359117;32;20578;-35
2021/03/02 04:52:08;;;;;;;2.90;1.30;;;-2.20;53.40;;;;;;4359217;32;20086;-36
2021/03/02 04:54:35;;;;;;;4.23;2.37;;;-2.10;53.30;;;;;;4358840;32;20079;-35
2021/03/02 04:57:01;;;;;;;4.20;2.13;;;-2.00;53.50;;;;;;4359276;32;20066;-39
2021/03/02 04:59:28;;;;;;;7.50;2.30;;;-1.80;53.50;;;;;;4359150;32;20135;-34
2021/03/02 05:01:54;;;;;;;7.47;2.63;;;-1.70;53.40;;;;;;4358781;32;20062;-34
2021/03/02 05:04:20;;;;;;;4.13;1.67;;;-1.60;53.30;;;;;;4359261;32;20633;-35
2021/03/02 05:06:47;;;;;;;4.93;3.20;;;-1.50;53.30;;;;;;4358575;32;20082;-38
2021/03/02 05:09:13;;;;;;;4.37;2.40;;;-1.40;53.20;;;;;;4358681;32;20058;-34
2021/03/02 05:11:40;;;;;;;5.97;2.43;;;-1.30;53.30;;;;;;4359076;32;20507;-33
2021/03/02 05:14:06;;;;;;;6.23;2.20;;;-1.30;53.20;;;;;;4358382;32;20537;-36
2021/03/02 05:16:33;;;;;;;6.20;1.97;;;-1.20;53.30;;;;;;4358403;32;20150;-33
2021/03/02 05:18:59;;;;;;;3.90;2.47;;;-1.10;53.50;;;;;;4358658;32;20175;-34
2021/03/02 05:21:25;;;;;;;3.97;2.00;;;-1.00;53.90;;;;;;4358805;32;20158;-35
2021/03/02 05:23:52;;;;;;;3.30;1.67;;;-1.00;54.30;;;;;;4357066;32;20078;-33
2021/03/02 05:26:21;;;;;;;7.13;3.60;;;-0.90;54.40;;;;;;4363640;32;20068;-37
2021/03/02 05:28:50;;;;;;;6.37;3.23;;;-0.70;54.50;;;;;;4373382;32;20071;-36
2021/03/02 05:31:17;;;;;;;7.87;3.00;;;-0.70;54.80;;;;;;4372105;32;20083;-35
2021/03/02 05:33:43;;;;;;;3.17;1.97;;;-0.70;54.60;;;;;;4373406;32;20089;-35
2021/03/02 05:36:10;;;;;;;5.80;2.43;;;-0.60;54.00;;;;;;4373557;32;20161;-34
2021/03/02 05:38:36;;;;;;;5.23;2.17;;;-0.50;54.00;;;;;;4373486;32;20224;-33
2021/03/02 05:41:03;;;;;;;3.83;2.30;;;-0.50;54.10;;;;;;4373319;32;20077;-42
2021/03/02 05:43:30;;;;;;;9.17;3.00;;;-0.40;54.20;;;;;;4373511;32;20599;-35
2021/03/02 05:45:57;;;;;;;4.90;2.83;;;-0.30;54.20;;;;;;4371942;32;20074;-35
2021/03/02 05:48:29;;;;;;;5.90;2.77;;;-0.20;54.10;;;;;;4373213;32;20154;-33
2021/03/02 05:50:55;;;;;;;6.57;3.57;;;-0.10;54.30;;;;;;4371746;32;20165;-34
2021/03/02 05:53:22;;;;;;;5.83;2.77;;;-0.10;54.00;;;;;;4371695;32;20078;-34
2021/03/02 05:55:49;;;;;;;5.60;3.00;;;0.00;53.70;;;;;;4371588;32;20633;-37
2021/03/02 05:58:15;;;;;;;6.80;2.90;;;0.00;53.50;;;;;;4372776;32;20145;-35
2021/03/02 06:00:43;;;;;;;5.47;2.97;;;0.00;53.70;;;;;;4373075;32;20158;-35
2021/03/02 06:03:10;;;;;;;6.13;3.57;;;0.10;53.70;;;;;;4373037;32;20135;-36
2021/03/02 06:05:36;;;;;;;4.90;2.57;;;0.10;53.90;;;;;;4371731;32;20051;-35
2021/03/02 06:08:06;;;;;;;4.00;2.13;;;0.20;54.00;;;;;;4373240;32;20534;-34
2021/03/02 06:10:33;;;;;;;6.03;3.57;;;0.30;53.90;;;;;;4373092;32;20062;-33
2021/03/02 06:13:00;;;;;;;6.50;3.07;;;0.30;53.90;;;;;;4373270;32;20163;-33
2021/03/02 06:15:28;;;;;;;4.83;2.57;;;0.40;54.00;;;;;;4372995;32;20074;-35
2021/03/02 06:18:18;;;;;;;8.73;3.63;;;0.50;53.80;;;;;;4372988;32;20161;-34
2021/03/02 06:20:44;;;;;;;5.40;2.63;;;0.60;53.50;;;;;;4373102;32;20086;-34
2021/03/02 06:23:29;;;;;;;8.10;2.67;;;0.70;53.60;;;;;;4371074;32;20077;-33
2021/03/02 06:25:57;;;;;;;6.43;2.47;;;0.80;53.30;;;;;;4369842;32;20109;-36
2021/03/02 06:28:38;;;;;;;6.47;2.70;;;0.80;52.90;;;;;;4357615;32;20074;-34
2021/03/02 06:31:05;;;;;;;7.43;2.57;;;0.90;52.90;;;;;;4357883;32;20101;-34
2021/03/02 06:33:32;;;;;;;3.40;1.80;;;0.90;52.90;;;;;;4357739;32;20166;-36
2021/03/02 06:35:58;;;;;;;4.17;2.27;;;0.90;52.90;;;;;;4357609;32;20066;-33
2021/03/02 06:38:33;;;;;;;3.93;2.63;;;1.00;53.00;;;;;;4357545;32;20636;-33
2021/03/02 06:41:00;;;;;;;4.93;2.47;;;1.10;53.00;;;;;;4358041;32;20055;-34
2021/03/02 06:43:36;;;;;;;3.70;1.43;;;1.20;53.00;;;;;;4357920;32;20097;-36
2021/03/02 06:46:10;;;;;;;6.33;3.40;;;1.30;53.20;;;;;;4358028;32;20228;-34
2021/03/02 06:48:53;;;;;;;8.73;2.93;;;1.40;53.10;;;;;;4357738;32;20545;-43
2021/03/02 06:51:28;;;;;;;5.50;2.50;;;1.40;52.50;;;;;;4358067;32;20062;-33
2021/03/02 06:54:16;;;;;;;7.12;2.87;;;1.40;52.50;;;;;;4357991;32;20534;-34
2021/03/02 06:56:43;;;;;;;3.97;2.37;;;1.50;52.40;;;;;;4357605;32;20108;-34
2021/03/02 06:59:18;;;;;;;4.73;2.80;;;1.50;52.30;;;;;;4357638;32;20455;-34
2021/03/02 07:01:48;;;;;;;9.50;3.25;;;1.50;52.20;;;;;;4357895;32;20086;-33
2021/03/02 07:04:16;;;;;;;6.80;2.77;;;1.60;52.30;;;;;;4357668;32;20090;-33
2021/03/02 07:06:43;;;;;;;5.63;1.83;;;1.60;52.10;;;;;;4357822;32;20129;-34
2021/03/02 07:09:11;;;;;;;6.60;2.97;;;1.60;52.20;;;;;;4357841;32;20066;-33
2021/03/02 07:11:39;;;;;;;4.40;2.63;;;1.70;52.10;;;;;;4358097;32;20099;-34
2021/03/02 07:14:08;;;;;;;4.07;2.10;;;1.70;52.30;;;;;;4356457;32;20175;-33
2021/03/02 07:16:39;;;;;;;4.93;2.63;;;1.70;52.30;;;;;;4357311;32;20481;-34
2021/03/02 07:19:06;;;;;;;3.17;1.70;;;1.80;52.40;;;;;;4357872;32;20074;-35
2021/03/02 07:21:37;;;;;;;5.03;2.60;;;1.90;52.50;;;;;;4357487;32;20146;-34
2021/03/02 07:24:06;;;;;;;4.83;2.57;;;1.90;52.30;;;;;;4356092;32;20563;-34
2021/03/02 07:26:34;;;;;;;3.87;1.70;;;2.00;52.40;;;;;;4363960;32;20151;-34
2021/03/02 07:29:03;;;;;;;4.53;2.13;;;2.10;52.50;;;;;;4372228;32;20066;-35
2021/03/02 07:31:33;;;;;;;3.60;1.93;;;2.10;52.40;;;;;;4374091;32;20144;-36
2021/03/02 07:34:06;;;;;;;3.73;2.20;;;2.20;52.40;;;;;;4373354;32;20102;-35
2021/03/02 07:36:42;;;;;;;3.83;2.63;;;2.30;52.20;;;;;;4361677;32;20065;-33
2021/03/02 07:39:16;;;;;;;4.83;2.60;;;2.40;52.20;;;;;;4362000;32;20071;-40
2021/03/02 07:41:46;;;;;;;5.00;3.10;;;2.50;52.00;;;;;;4373827;32;20093;-34
2021/03/02 07:44:14;;;;;;;3.73;1.97;;;2.50;51.70;;;;;;4375247;32;20066;-32
2021/03/02 07:46:40;;;;;;;3.87;1.37;;;2.60;51.50;;;;;;4375039;32;20524;-35
2021/03/02 07:49:32;;;;;;;5.00;2.10;;;2.70;51.70;;;;;;4375117;32;20497;-35
2021/03/02 07:52:02;;;;;;;3.83;1.57;;;2.80;51.60;;;;;;4373234;32;20092;-33
2021/03/02 07:54:35;;;;;;;6.40;2.30;;;2.90;51.60;;;;;;4374772;32;20087;-35
2021/03/02 07:57:18;;;;;;;4.10;2.00;;;3.00;51.30;;;;;;4374606;32;20070;-35
2021/03/02 07:59:46;;;;;;;5.97;2.10;;;3.00;50.60;;;;;;4374762;32;20074;-34
2021/03/02 08:02:22;;;;;;;5.00;2.33;;;3.10;50.70;;;;;;4374690;32;20073;-36
2021/03/02 08:04:49;;;;;;;4.00;2.17;;;3.10;50.20;;;;;;4374717;32;20065;-35
2021/03/02 08:07:27;;;;;;;4.93;2.47;;;3.20;50.50;;;;;;4373349;32;20453;-34
2021/03/02 08:09:55;;;;;;;5.53;2.87;;;3.30;50.40;;;;;;4373753;32;20090;-37
2021/03/02 08:12:33;;;;;;;4.30;2.23;;;3.30;50.40;;;;;;4372852;32;20069;-34
2021/03/02 08:15:03;;;;;;;4.23;2.33;;;3.40;50.10;;;;;;4374694;32;20135;-35
2021/03/02 08:17:29;;;;;;;4.50;2.10;;;3.40;50.00;;;;;;4374419;32;20439;-35
2021/03/02 08:20:04;;;;;;;3.83;1.97;;;3.40;49.70;;;;;;4374398;32;20151;-34
2021/03/02 08:22:34;;;;;;;;;;;3.40;49.50;;;;;;4375194;32;20127;-34
2021/03/02 08:25:03;;;;;;;4.33;1.97;;;3.50;49.70;;;;;;4374715;32;20420;-36
2021/03/02 08:27:52;;;;;;;5.33;2.03;;;3.50;49.60;;;;;;4360300;32;20097;-33
2021/03/02 08:30:37;;;;;;;3.67;1.33;;;3.40;49.30;;;;;;4359739;32;20057;-39
2021/03/02 08:33:07;;;;;;;4.37;2.20;;;3.40;49.50;;;;;;4359454;32;20098;-38
2021/03/02 08:35:37;;;;;;;5.23;2.13;;;3.40;49.30;;;;;;4359629;32;20519;-39
2021/03/02 08:38:08;;;;;;;2.80;1.47;;;3.40;49.20;;;;;;4359699;32;20089;-39
2021/03/02 08:40:35;;;;;;;4.37;2.93;;;3.40;49.50;;;;;;4358870;32;20089;-38
2021/03/02 08:43:23;;;;;;;5.60;2.57;;;3.40;49.50;;;;;;4358264;32;20101;-39
2021/03/02 08:46:07;;;;;;;4.00;2.17;;;3.40;49.60;;;;;;4357881;32;20523;-34
2021/03/02 08:48:34;;;;;;;3.60;1.80;;;3.30;49.60;;;;;;4359047;32;20096;-36
2021/03/02 08:51:06;;;;;;;3.67;2.07;;;3.40;49.90;;;;;;4359309;32;20055;-36
2021/03/02 08:53:49;;;;;;;3.87;1.73;;;3.40;50.00;;;;;;4357623;32;20085;-39
2021/03/02 08:56:17;;;;;;;6.23;2.83;;;3.50;50.60;;;;;;4359453;32;20790;-34
2021/03/02 08:58:45;;;;;;;7.87;1.97;;;3.50;50.00;;;;;;4359383;32;20065;-35
2021/03/02 09:01:21;;;;;;;4.67;1.80;;;3.60;49.90;;;;;;4359135;32;20078;-35
2021/03/02 09:03:48;;;;;;;4.03;1.37;;;3.70;50.00;;;;;;4359069;32;20081;-35
2021/03/02 09:06:25;;;;;;;4.67;2.40;;;3.70;49.90;;;;;;4358728;32;20075;-39
2021/03/02 09:09:17;;;;;;;3.87;1.30;;;3.80;49.80;;;;;;4359157;32;20171;-34
2021/03/02 09:11:46;;;;;;;3.57;1.67;;;3.80;49.70;;;;;;4358928;32;20111;-36
2021/03/02 09:14:14;;;;;;;6.93;3.87;;;3.90;49.50;;;;;;4359059;32;20126;-34
2021/03/02 09:16:55;;;;;;;4.70;2.33;;;3.90;49.20;;;;;;4358714;32;20471;-33
2021/03/02 09:19:41;;;;;;;5.63;2.40;;;3.80;49.10;;;;;;4358817;32;20151;-35
2021/03/02 09:22:13;;;;;;;3.67;2.13;;;3.80;49.10;;;;;;4358539;32;20105;-43
2021/03/02 09:24:40;;;;;;;4.53;2.00;;;3.80;49.20;;;;;;4358286;32;20070;-35
2021/03/02 09:27:12;;;;;;;5.23;2.00;;;3.80;49.20;;;;;;4368301;32;20150;-36
2021/03/02 09:29:49;;;;;;;3.20;1.70;;;3.70;49.20;;;;;;4373644;32;20446;-36
2021/03/02 09:32:27;;;;;;;5.67;4.00;;;3.70;50.00;;;;;;4373588;32;20157;-42
2021/03/02 09:35:00;;;;;;;4.60;2.30;;;3.70;49.30;;;;;;4372451;32;20063;-36
2021/03/02 09:37:27;;;;;;;4.00;2.80;;;3.70;49.50;;;;;;4371811;32;20069;-35
2021/03/02 09:40:02;;;;;;;2.97;2.10;;;3.70;49.60;;;;;;4373377;32;20059;-34
2021/03/02 09:42:31;;;;;;;4.20;1.70;;;3.70;50.00;;;;;;4373320;32;20051;-37
2021/03/02 09:45:03;;;;;;;7.60;1.93;;;3.70;50.00;;;;;;4373495;32;20050;-39
2021/03/02 09:47:35;;;;;;;5.50;2.33;;;3.80;50.10;;;;;;4373428;32;20081;-34
2021/03/02 09:50:07;;;;;;;5.07;2.87;;;3.80;50.10;;;;;;4373116;32;20069;-34
2021/03/02 09:52:44;;;;;;;7.00;2.67;;;3.90;50.20;;;;;;4373065;32;20073;-34
2021/03/02 09:55:32;;;;;;;5.33;1.93;;;3.90;50.20;;;;;;4372782;32;20054;-35
2021/03/02 09:58:18;;;;;;;7.40;2.90;;;3.90;50.20;;;;;;4371508;32;20121;-34
2021/03/02 10:00:45;;;;;;;6.43;2.03;;;4.00;50.20;;;;;;4371666;32;20094;-34
2021/03/02 10:03:21;;;;;;;6.00;3.93;;;4.00;50.30;;;;;;4372945;32;20061;-40
2021/03/02 10:05:57;;;;;;;6.57;3.17;;;4.10;50.50;;;;;;4372919;32;20183;-33
2021/03/02 10:08:39;;;;;;;5.20;1.90;;;4.20;50.50;;;;;;4372449;32;20161;-34
2021/03/02 10:11:11;;;;;;;4.57;1.80;;;4.30;50.40;;;;;;4372683;32;20179;-33
2021/03/02 10:13:40;;;;;;;8.10;3.70;;;4.40;50.40;;;;;;4372651;32;20190;-33
2021/03/02 10:16:29;;;;;;;5.90;3.03;;;4.50;50.30;;;;;;4372971;32;20089;-33
2021/03/02 10:19:16;;;;;;;7.90;3.57;;;4.60;50.20;;;;;;4372567;32;20133;-35
2021/03/02 10:21:46;;;;;;;7.67;2.63;;;4.60;50.00;;;;;;4372766;32;20082;-33
2021/03/02 10:24:36;;;;;;;9.33;4.33;;;4.70;50.20;;;;;;4372595;32;20068;-36
2021/03/02 10:27:15;;;;;;;8.40;3.60;;;4.80;50.20;;;;;;4362994;32;20098;-33
2021/03/02 10:29:46;;;;;;;8.57;3.60;;;4.90;49.90;;;;;;4357701;32;20074;-35
2021/03/02 10:32:13;;;;;;;7.00;2.67;;;4.90;49.90;;;;;;4356529;32;20051;-35
2021/03/02 10:34:41;;;;;;;5.67;1.73;;;5.00;50.10;;;;;;4357693;32;20617;-33
2021/03/02 10:37:08;;;;;;;11.17;3.80;;;5.10;50.00;;;;;;4357916;32;20157;-34
2021/03/02 10:39:35;;;;;;;6.57;2.80;;;5.10;49.90;;;;;;4357830;32;20117;-36
2021/03/02 10:42:03;;;;;;;7.57;3.37;;;5.20;49.80;;;;;;4355992;32;20077;-34
2021/03/02 10:44:30;;;;;;;5.07;2.47;;;5.20;49.70;;;;;;4357673;32;20511;-34
2021/03/02 10:46:56;;;;;;;7.17;4.17;;;5.30;49.60;;;;;;4357834;32;20545;-33
2021/03/02 10:49:23;;;;;;;6.13;2.50;;;5.30;49.60;;;;;;4356352;32;20057;-32
2021/03/02 10:51:49;;;;;;;8.10;3.37;;;5.40;49.60;;;;;;4358166;32;20172;-33
2021/03/02 10:54:16;;;;;;;8.33;3.93;;;5.40;49.90;;;;;;4357529;32;20083;-32
2021/03/02 10:56:42;;;;;;;8.17;3.70;;;5.50;49.70;;;;;;4357623;32;20155;-34
2021/03/02 10:59:09;;;;;;;3.63;2.20;;;5.50;49.30;;;;;;4357091;32;20093;-33
2021/03/02 11:01:35;;;;;;;7.40;2.87;;;5.50;49.50;;;;;;4357642;32;20098;-33
2021/03/02 11:04:02;;;;;;;8.70;2.43;;;5.50;49.30;;;;;;4356120;32;20062;-34
2021/03/02 11:06:29;;;;;;;7.17;3.47;;;5.50;49.30;;;;;;4359495;32;20062;-35
2021/03/02 11:08:59;;;;;;;11.63;3.37;;;5.60;49.30;;;;;;4360587;32;20165;-35
2021/03/02 11:11:26;;;;;;;7.30;3.53;;;5.60;49.30;;;;;;4360567;32;20109;-33
2021/03/02 11:13:53;;;;;;;7.23;3.80;;;5.70;49.20;;;;;;4361065;32;20063;-34
2021/03/02 11:16:19;;;;;;;7.43;3.87;;;5.70;49.30;;;;;;4359294;32;20073;-33
2021/03/02 11:18:46;;;;;;;10.53;3.47;;;5.70;49.40;;;;;;4360698;32;20108;-32
2021/03/02 11:21:12;;;;;;;6.73;3.77;;;5.80;49.50;;;;;;4360273;32;20503;-34
2021/03/02 11:23:40;;;;;;;6.27;2.93;;;5.80;49.20;;;;;;4360689;32;20054;-35
2021/03/02 11:26:07;;;;;;;6.00;2.60;;;5.90;49.30;;;;;;4358765;32;20147;-36
2021/03/02 11:28:35;;;;;;;10.10;4.67;;;5.90;49.10;;;;;;4360326;32;20074;-34
2021/03/02 11:31:01;;;;;;;9.63;3.87;;;5.90;49.10;;;;;;4360326;32;20066;-36
2021/03/02 11:33:28;;;;;;;9.83;3.17;;;6.00;49.20;;;;;;4359765;32;20055;-34
2021/03/02 11:35:54;;;;;;;7.63;3.40;;;6.00;49.20;;;;;;4360310;32;20158;-33
2021/03/02 11:38:21;;;;;;;8.07;3.90;;;6.00;49.10;;;;;;4360195;32;20074;-35
2021/03/02 11:40:48;;;;;;;6.17;3.87;;;6.00;49.20;;;;;;4360109;32;20536;-34
2021/03/02 11:43:14;;;;;;;5.80;2.67;;;5.90;49.40;;;;;;4358797;32;20074;-35
2021/03/02 11:45:41;;;;;;;8.43;4.37;;;5.90;49.60;;;;;;4358743;32;20157;-33
2021/03/02 11:48:09;;;;;;;6.33;3.40;;;5.90;49.90;;;;;;4360440;32;20519;-36
2021/03/02 11:50:35;;;;;;;6.83;4.10;;;5.80;50.20;;;;;;4360273;32;20530;-35
2021/03/02 11:53:02;;;;;;;7.07;4.13;;;5.70;50.50;;;;;;4359939;32;20047;-37
2021/03/02 11:55:28;;;;;;;7.93;4.10;;;5.70;50.80;;;;;;4358330;32;20082;-36
2021/03/02 11:57:55;;;;;;;11.67;3.50;;;5.60;50.90;;;;;;4358522;32;20133;-37
2021/03/02 12:00:22;;;;;;;6.83;3.90;;;5.50;51.10;;;;;;4360485;32;20074;-35
2021/03/02 12:02:49;;;;;;;9.80;4.27;;;5.50;51.50;;;;;;4359650;32;20059;-36
2021/03/02 12:05:17;;;;;;;9.10;4.43;;;5.40;51.60;;;;;;4360176;32;20066;-35
2021/03/02 12:07:43;;;;;;;6.40;3.23;;;5.40;51.80;;;;;;4359920;32;20074;-37
2021/03/02 12:10:11;;;;;;;6.17;3.60;;;5.30;52.00;;;;;;4359529;32;20173;-36
2021/03/02 12:12:39;;;;;;;7.10;3.50;;;5.30;52.20;;;;;;4359755;32;20146;-37
2021/03/02 12:15:06;;;;;;;4.27;2.60;;;5.30;52.50;;;;;;4358245;32;20264;-38
2021/03/02 12:17:34;;;;;;;6.57;4.10;;;5.30;52.70;;;;;;4333621;32;20073;-42
2021/03/02 12:20:01;;;;;;;9.07;4.10;;;5.20;52.80;;;;;;4346340;32;20058;-37
2021/03/02 12:22:27;;;;;;;7.47;3.60;;;5.20;53.00;;;;;;4359381;32;20569;-35
2021/03/02 12:24:54;;;;;;;5.03;2.63;;;5.20;53.40;;;;;;4359823;32;20078;-35
2021/03/02 12:27:20;;;;;;;7.13;3.43;;;5.10;53.40;;;;;;4371115;32;20085;-37
2021/03/02 12:29:48;;;;;;;7.93;4.23;;;5.10;53.60;;;;;;4374391;32;20073;-36
2021/03/02 12:32:14;;;;;;;7.77;3.27;;;5.00;53.60;;;;;;4374493;32;20098;-36
2021/03/02 12:34:41;;;;;;;9.93;4.87;;;5.00;53.70;;;;;;4374482;32;20097;-40
2021/03/02 12:37:07;;;;;;;8.13;3.83;;;5.00;53.80;;;;;;4374328;32;20070;-37
2021/03/02 12:39:34;;;;;;;8.30;4.70;;;4.90;53.90;;;;;;4373054;32;20081;-35
2021/03/02 12:42:00;;;;;;;11.77;4.80;;;4.90;54.00;;;;;;4374070;32;20495;-35
2021/03/02 12:44:27;;;;;;;10.07;5.20;;;4.90;54.10;;;;;;4374023;32;20090;-43
2021/03/02 12:46:53;;;;;;;11.67;4.37;;;4.80;54.10;;;;;;4373989;32;20076;-37
2021/03/02 12:49:20;;;;;;;12.57;6.47;;;4.70;54.10;;;;;;4374185;32;20099;-37
2021/03/02 12:51:46;;;;;;;14.20;7.50;;;4.70;54.30;;;;;;4372850;32;20257;-36
2021/03/02 12:54:13;;;;;;;10.17;3.67;;;4.70;54.40;;;;;;4373971;32;20070;-36
2021/03/02 12:56:39;;;;;;;6.63;3.30;;;4.70;54.40;;;;;;4374202;32;20077;-36
2021/03/02 12:59:06;;;;;;;11.37;5.17;;;4.70;54.50;;;;;;4372392;32;20722;-36
2021/03/02 13:01:32;;;;;;;8.07;4.17;;;4.70;54.70;;;;;;4374078;32;20066;-39
2021/03/02 13:03:59;;;;;;;9.27;4.70;;;4.70;54.90;;;;;;4373905;32;20062;-36
2021/03/02 13:06:26;;;;;;;8.67;4.77;;;4.70;55.00;;;;;;4372320;32;20089;-36
2021/03/02 13:08:54;;;;;;;14.13;5.47;;;4.70;55.00;;;;;;4373593;32;20074;-37